Terminal Aerodrome Forecast
Issued by NWS

Home | Current Version | Previous Version | Text Only | Print | Product List | Glossary On
Versions: 1 2 3 4 5 6 7 8 9 10 11 12 13 14
185
FTAK31 PAJN 211728
TAFASI
TAF
PASI 211728Z 2118/2218 VRB06KT P6SM VCSH FEW050 BKN080
     FM221400 11009KT 4SM -SHSNRA BR OVC040
     FM221700 13010KT 6SM -SHRA BR OVC030=

USA.gov is the U.S. government's official web portal to all federal, state and local government web resources and services.